sensor_id;sensor_type;location;lat;lon;timestamp;P1;durP1;ratioP1;P2;durP2;ratioP2
72924;SDS011;61070;50.794;7.054;2023-05-14T00:00:58;18.70;;;11.68;;
72924;SDS011;61070;50.794;7.054;2023-05-14T00:03:24;18.35;;;11.18;;
72924;SDS011;61070;50.794;7.054;2023-05-14T00:05:49;21.08;;;10.95;;
72924;SDS011;61070;50.794;7.054;2023-05-14T00:08:14;18.00;;;11.30;;
72924;SDS011;61070;50.794;7.054;2023-05-14T00:10:40;18.88;;;10.55;;
72924;SDS011;61070;50.794;7.054;2023-05-14T00:13:05;19.98;;;10.90;;
72924;SDS011;61070;50.794;7.054;2023-05-14T00:15:30;14.07;;;10.60;;
72924;SDS011;61070;50.794;7.054;2023-05-14T00:17:56;17.90;;;10.90;;
72924;SDS011;61070;50.794;7.054;2023-05-14T00:20:21;15.52;;;10.00;;
72924;SDS011;61070;50.794;7.054;2023-05-14T00:22:46;14.00;;;9.52;;
72924;SDS011;61070;50.794;7.054;2023-05-14T00:25:12;13.40;;;9.13;;
72924;SDS011;61070;50.794;7.054;2023-05-14T00:27:37;12.50;;;7.90;;
72924;SDS011;61070;50.794;7.054;2023-05-14T00:30:03;12.82;;;8.05;;
72924;SDS011;61070;50.794;7.054;2023-05-14T00:32:30;12.65;;;9.05;;
72924;SDS011;61070;50.794;7.054;2023-05-14T00:34:55;13.82;;;8.93;;
72924;SDS011;61070;50.794;7.054;2023-05-14T00:37:20;14.35;;;8.75;;
72924;SDS011;61070;50.794;7.054;2023-05-14T00:39:46;15.27;;;8.80;;
72924;SDS011;61070;50.794;7.054;2023-05-14T00:42:11;13.63;;;8.80;;
72924;SDS011;61070;50.794;7.054;2023-05-14T00:44:36;13.60;;;8.43;;
72924;SDS011;61070;50.794;7.054;2023-05-14T00:47:02;17.40;;;9.27;;
72924;SDS011;61070;50.794;7.054;2023-05-14T00:49:27;11.32;;;8.15;;
72924;SDS011;61070;50.794;7.054;2023-05-14T00:51:53;14.13;;;8.73;;
72924;SDS011;61070;50.794;7.054;2023-05-14T00:54:18;15.15;;;8.63;;
72924;SDS011;61070;50.794;7.054;2023-05-14T00:56:45;11.95;;;8.20;;
72924;SDS011;61070;50.794;7.054;2023-05-14T00:59:11;14.48;;;8.90;;
72924;SDS011;61070;50.794;7.054;2023-05-14T01:01:36;13.55;;;7.80;;
72924;SDS011;61070;50.794;7.054;2023-05-14T01:04:02;13.25;;;8.48;;
72924;SDS011;61070;50.794;7.054;2023-05-14T01:09:12;10.55;;;8.20;;
72924;SDS011;61070;50.794;7.054;2023-05-14T01:12:14;18.63;;;9.27;;
72924;SDS011;61070;50.794;7.054;2023-05-14T01:17:13;18.33;;;8.75;;
72924;SDS011;61070;50.794;7.054;2023-05-14T01:22:10;10.80;;;7.32;;
72924;SDS011;61070;50.794;7.054;2023-05-14T01:24:35;9.23;;;7.28;;
72924;SDS011;61070;50.794;7.054;2023-05-14T01:29:39;13.95;;;8.70;;
72924;SDS011;61070;50.794;7.054;2023-05-14T01:32:09;12.07;;;7.80;;
72924;SDS011;61070;50.794;7.054;2023-05-14T01:34:36;14.98;;;8.50;;
72924;SDS011;61070;50.794;7.054;2023-05-14T01:37:01;13.23;;;8.20;;
72924;SDS011;61070;50.794;7.054;2023-05-14T01:39:29;11.13;;;8.13;;
72924;SDS011;61070;50.794;7.054;2023-05-14T01:41:56;19.33;;;8.70;;
72924;SDS011;61070;50.794;7.054;2023-05-14T01:44:22;15.68;;;9.10;;
72924;SDS011;61070;50.794;7.054;2023-05-14T01:46:48;11.57;;;8.02;;
72924;SDS011;61070;50.794;7.054;2023-05-14T01:49:14;12.63;;;8.90;;
72924;SDS011;61070;50.794;7.054;2023-05-14T01:51:42;12.32;;;8.77;;
72924;SDS011;61070;50.794;7.054;2023-05-14T01:54:07;13.43;;;8.27;;
72924;SDS011;61070;50.794;7.054;2023-05-14T01:56:32;11.80;;;7.55;;
72924;SDS011;61070;50.794;7.054;2023-05-14T01:58:57;13.13;;;8.65;;
72924;SDS011;61070;50.794;7.054;2023-05-14T02:01:23;14.23;;;8.30;;
72924;SDS011;61070;50.794;7.054;2023-05-14T02:03:49;11.93;;;8.50;;
72924;SDS011;61070;50.794;7.054;2023-05-14T02:06:15;11.60;;;7.65;;
72924;SDS011;61070;50.794;7.054;2023-05-14T02:08:40;10.63;;;8.18;;
72924;SDS011;61070;50.794;7.054;2023-05-14T02:11:05;11.02;;;8.35;;
72924;SDS011;61070;50.794;7.054;2023-05-14T02:13:31;16.33;;;8.68;;
72924;SDS011;61070;50.794;7.054;2023-05-14T02:15:56;11.15;;;8.95;;
72924;SDS011;61070;50.794;7.054;2023-05-14T02:18:21;17.30;;;8.95;;
72924;SDS011;61070;50.794;7.054;2023-05-14T02:20:47;15.75;;;8.35;;
72924;SDS011;61070;50.794;7.054;2023-05-14T02:23:12;13.43;;;8.75;;
72924;SDS011;61070;50.794;7.054;2023-05-14T02:25:37;13.05;;;8.32;;
72924;SDS011;61070;50.794;7.054;2023-05-14T02:28:03;13.18;;;7.47;;
72924;SDS011;61070;50.794;7.054;2023-05-14T02:30:28;12.32;;;8.30;;
72924;SDS011;61070;50.794;7.054;2023-05-14T02:32:55;11.93;;;8.57;;
72924;SDS011;61070;50.794;7.054;2023-05-14T02:35:20;11.05;;;7.45;;
72924;SDS011;61070;50.794;7.054;2023-05-14T02:37:45;14.20;;;8.70;;
72924;SDS011;61070;50.794;7.054;2023-05-14T02:40:11;11.18;;;7.72;;
72924;SDS011;61070;50.794;7.054;2023-05-14T02:42:36;11.43;;;8.15;;
72924;SDS011;61070;50.794;7.054;2023-05-14T02:45:01;13.02;;;8.18;;
72924;SDS011;61070;50.794;7.054;2023-05-14T02:47:27;14.07;;;7.95;;
72924;SDS011;61070;50.794;7.054;2023-05-14T02:49:52;13.73;;;9.15;;
72924;SDS011;61070;50.794;7.054;2023-05-14T02:52:18;16.48;;;8.73;;
72924;SDS011;61070;50.794;7.054;2023-05-14T02:54:43;16.00;;;8.60;;
72924;SDS011;61070;50.794;7.054;2023-05-14T02:57:08;12.98;;;8.55;;
72924;SDS011;61070;50.794;7.054;2023-05-14T02:59:34;11.82;;;7.95;;
72924;SDS011;61070;50.794;7.054;2023-05-14T03:02:00;11.63;;;7.63;;
72924;SDS011;61070;50.794;7.054;2023-05-14T03:04:25;11.43;;;8.13;;
72924;SDS011;61070;50.794;7.054;2023-05-14T03:06:50;17.05;;;9.00;;
72924;SDS011;61070;50.794;7.054;2023-05-14T03:09:15;16.58;;;9.25;;
72924;SDS011;61070;50.794;7.054;2023-05-14T03:11:41;11.75;;;7.93;;
72924;SDS011;61070;50.794;7.054;2023-05-14T03:14:06;10.75;;;8.68;;
72924;SDS011;61070;50.794;7.054;2023-05-14T03:16:31;13.90;;;8.75;;
72924;SDS011;61070;50.794;7.054;2023-05-14T03:18:57;16.25;;;8.55;;
72924;SDS011;61070;50.794;7.054;2023-05-14T03:21:22;12.07;;;7.60;;
72924;SDS011;61070;50.794;7.054;2023-05-14T03:23:47;9.50;;;7.35;;
72924;SDS011;61070;50.794;7.054;2023-05-14T03:26:13;10.85;;;7.63;;
72924;SDS011;61070;50.794;7.054;2023-05-14T03:28:38;12.15;;;7.22;;
72924;SDS011;61070;50.794;7.054;2023-05-14T03:31:04;12.77;;;7.03;;
72924;SDS011;61070;50.794;7.054;2023-05-14T03:33:30;11.15;;;7.22;;
72924;SDS011;61070;50.794;7.054;2023-05-14T03:35:55;13.38;;;7.85;;
72924;SDS011;61070;50.794;7.054;2023-05-14T03:38:20;13.27;;;7.47;;
72924;SDS011;61070;50.794;7.054;2023-05-14T03:40:46;13.82;;;8.20;;
72924;SDS011;61070;50.794;7.054;2023-05-14T03:43:11;14.23;;;9.40;;
72924;SDS011;61070;50.794;7.054;2023-05-14T03:45:36;14.70;;;8.50;;
72924;SDS011;61070;50.794;7.054;2023-05-14T03:48:02;16.20;;;8.60;;
72924;SDS011;61070;50.794;7.054;2023-05-14T03:50:27;25.10;;;10.38;;
72924;SDS011;61070;50.794;7.054;2023-05-14T03:52:53;26.65;;;10.95;;
72924;SDS011;61070;50.794;7.054;2023-05-14T03:55:19;21.45;;;10.45;;
72924;SDS011;61070;50.794;7.054;2023-05-14T03:57:44;37.33;;;11.88;;
72924;SDS011;61070;50.794;7.054;2023-05-14T04:00:10;54.85;;;12.50;;
72924;SDS011;61070;50.794;7.054;2023-05-14T04:02:36;26.52;;;11.98;;
72924;SDS011;61070;50.794;7.054;2023-05-14T04:05:01;22.83;;;12.23;;
72924;SDS011;61070;50.794;7.054;2023-05-14T04:07:26;22.40;;;11.52;;
72924;SDS011;61070;50.794;7.054;2023-05-14T04:09:52;30.13;;;11.32;;
72924;SDS011;61070;50.794;7.054;2023-05-14T04:12:17;30.85;;;11.32;;
72924;SDS011;61070;50.794;7.054;2023-05-14T04:14:42;24.75;;;11.25;;
72924;SDS011;61070;50.794;7.054;2023-05-14T04:17:07;18.08;;;10.13;;
72924;SDS011;61070;50.794;7.054;2023-05-14T04:19:33;16.90;;;10.38;;
72924;SDS011;61070;50.794;7.054;2023-05-14T04:21:58;13.25;;;9.88;;
72924;SDS011;61070;50.794;7.054;2023-05-14T04:24:23;13.95;;;10.32;;
72924;SDS011;61070;50.794;7.054;2023-05-14T04:26:49;20.73;;;9.82;;
72924;SDS011;61070;50.794;7.054;2023-05-14T04:29:14;16.98;;;10.70;;
72924;SDS011;61070;50.794;7.054;2023-05-14T04:31:39;149.13;;;17.58;;
72924;SDS011;61070;50.794;7.054;2023-05-14T04:34:05;202.65;;;18.33;;
72924;SDS011;61070;50.794;7.054;2023-05-14T04:36:31;65.70;;;15.32;;
72924;SDS011;61070;50.794;7.054;2023-05-14T04:38:56;226.10;;;18.17;;
72924;SDS011;61070;50.794;7.054;2023-05-14T04:41:21;203.50;;;18.10;;
72924;SDS011;61070;50.794;7.054;2023-05-14T04:43:48;64.03;;;14.27;;
72924;SDS011;61070;50.794;7.054;2023-05-14T04:46:14;127.10;;;15.82;;
72924;SDS011;61070;50.794;7.054;2023-05-14T04:48:39;186.05;;;19.52;;
72924;SDS011;61070;50.794;7.054;2023-05-14T04:51:04;107.05;;;15.52;;
72924;SDS011;61070;50.794;7.054;2023-05-14T04:53:30;186.88;;;16.65;;
72924;SDS011;61070;50.794;7.054;2023-05-14T04:55:55;133.63;;;16.17;;
72924;SDS011;61070;50.794;7.054;2023-05-14T04:58:20;33.42;;;11.95;;
72924;SDS011;61070;50.794;7.054;2023-05-14T05:00:47;39.80;;;11.43;;
72924;SDS011;61070;50.794;7.054;2023-05-14T05:03:12;18.27;;;10.98;;
72924;SDS011;61070;50.794;7.054;2023-05-14T05:05:38;20.23;;;10.10;;
72924;SDS011;61070;50.794;7.054;2023-05-14T05:08:03;22.42;;;11.35;;
72924;SDS011;61070;50.794;7.054;2023-05-14T05:10:28;41.13;;;11.93;;
72924;SDS011;61070;50.794;7.054;2023-05-14T05:12:54;16.58;;;10.73;;
72924;SDS011;61070;50.794;7.054;2023-05-14T05:15:19;15.60;;;11.48;;
72924;SDS011;61070;50.794;7.054;2023-05-14T05:17:44;13.32;;;10.55;;
72924;SDS011;61070;50.794;7.054;2023-05-14T05:20:10;14.18;;;9.43;;
72924;SDS011;61070;50.794;7.054;2023-05-14T05:22:35;12.57;;;10.32;;
72924;SDS011;61070;50.794;7.054;2023-05-14T05:25:01;12.50;;;9.70;;
72924;SDS011;61070;50.794;7.054;2023-05-14T05:27:30;14.27;;;9.63;;
72924;SDS011;61070;50.794;7.054;2023-05-14T05:29:56;15.30;;;9.75;;
72924;SDS011;61070;50.794;7.054;2023-05-14T05:32:21;11.75;;;9.15;;
72924;SDS011;61070;50.794;7.054;2023-05-14T05:34:47;13.82;;;8.98;;
72924;SDS011;61070;50.794;7.054;2023-05-14T05:37:12;14.07;;;9.18;;
72924;SDS011;61070;50.794;7.054;2023-05-14T05:39:38;12.90;;;8.48;;
72924;SDS011;61070;50.794;7.054;2023-05-14T05:42:04;13.73;;;8.95;;
72924;SDS011;61070;50.794;7.054;2023-05-14T05:44:30;15.93;;;9.80;;
72924;SDS011;61070;50.794;7.054;2023-05-14T05:46:55;11.38;;;8.80;;
72924;SDS011;61070;50.794;7.054;2023-05-14T05:49:21;14.23;;;9.50;;
72924;SDS011;61070;50.794;7.054;2023-05-14T05:51:47;16.20;;;9.80;;
72924;SDS011;61070;50.794;7.054;2023-05-14T05:54:12;22.67;;;10.77;;
72924;SDS011;61070;50.794;7.054;2023-05-14T05:56:37;16.35;;;10.20;;
72924;SDS011;61070;50.794;7.054;2023-05-14T05:59:02;13.90;;;10.45;;
72924;SDS011;61070;50.794;7.054;2023-05-14T06:01:28;20.63;;;10.77;;
72924;SDS011;61070;50.794;7.054;2023-05-14T06:03:53;16.20;;;10.57;;
72924;SDS011;61070;50.794;7.054;2023-05-14T06:06:19;15.27;;;11.85;;
72924;SDS011;61070;50.794;7.054;2023-05-14T06:08:44;17.95;;;13.48;;
72924;SDS011;61070;50.794;7.054;2023-05-14T06:11:09;20.73;;;12.93;;
72924;SDS011;61070;50.794;7.054;2023-05-14T06:13:34;18.40;;;13.00;;
72924;SDS011;61070;50.794;7.054;2023-05-14T06:16:00;18.75;;;13.02;;
72924;SDS011;61070;50.794;7.054;2023-05-14T06:18:25;19.23;;;14.40;;
72924;SDS011;61070;50.794;7.054;2023-05-14T06:20:50;21.02;;;13.68;;
72924;SDS011;61070;50.794;7.054;2023-05-14T06:23:16;18.40;;;13.35;;
72924;SDS011;61070;50.794;7.054;2023-05-14T06:25:41;20.00;;;14.00;;
72924;SDS011;61070;50.794;7.054;2023-05-14T06:28:06;22.48;;;14.75;;
72924;SDS011;61070;50.794;7.054;2023-05-14T06:30:31;19.00;;;13.23;;
72924;SDS011;61070;50.794;7.054;2023-05-14T06:32:57;23.50;;;14.65;;
72924;SDS011;61070;50.794;7.054;2023-05-14T06:35:22;20.17;;;13.82;;
72924;SDS011;61070;50.794;7.054;2023-05-14T06:37:47;19.85;;;14.13;;
72924;SDS011;61070;50.794;7.054;2023-05-14T06:40:13;21.45;;;14.63;;
72924;SDS011;61070;50.794;7.054;2023-05-14T06:42:39;24.98;;;15.48;;
72924;SDS011;61070;50.794;7.054;2023-05-14T06:45:05;21.00;;;13.82;;
72924;SDS011;61070;50.794;7.054;2023-05-14T06:47:31;23.10;;;14.13;;
72924;SDS011;61070;50.794;7.054;2023-05-14T06:49:57;29.42;;;15.20;;
72924;SDS011;61070;50.794;7.054;2023-05-14T06:52:23;21.05;;;14.38;;
72924;SDS011;61070;50.794;7.054;2023-05-14T06:54:48;24.63;;;16.20;;
72924;SDS011;61070;50.794;7.054;2023-05-14T06:57:13;27.70;;;15.80;;
72924;SDS011;61070;50.794;7.054;2023-05-14T06:59:39;25.25;;;16.75;;
72924;SDS011;61070;50.794;7.054;2023-05-14T07:02:04;25.13;;;16.30;;
72924;SDS011;61070;50.794;7.054;2023-05-14T07:04:29;24.08;;;15.55;;
72924;SDS011;61070;50.794;7.054;2023-05-14T07:06:55;23.60;;;15.77;;
72924;SDS011;61070;50.794;7.054;2023-05-14T07:09:20;24.33;;;15.43;;
72924;SDS011;61070;50.794;7.054;2023-05-14T07:11:46;21.65;;;14.73;;
72924;SDS011;61070;50.794;7.054;2023-05-14T07:14:11;21.88;;;15.27;;
72924;SDS011;61070;50.794;7.054;2023-05-14T07:16:36;22.15;;;16.30;;
72924;SDS011;61070;50.794;7.054;2023-05-14T07:19:02;21.42;;;15.60;;
72924;SDS011;61070;50.794;7.054;2023-05-14T07:21:27;29.05;;;17.65;;
72924;SDS011;61070;50.794;7.054;2023-05-14T07:23:52;23.70;;;16.52;;
72924;SDS011;61070;50.794;7.054;2023-05-14T07:26:18;24.55;;;17.75;;
72924;SDS011;61070;50.794;7.054;2023-05-14T07:28:43;25.10;;;16.33;;
72924;SDS011;61070;50.794;7.054;2023-05-14T07:31:08;24.92;;;17.10;;
72924;SDS011;61070;50.794;7.054;2023-05-14T07:33:34;23.02;;;16.48;;
72924;SDS011;61070;50.794;7.054;2023-05-14T07:36:00;26.23;;;16.17;;
72924;SDS011;61070;50.794;7.054;2023-05-14T07:38:25;24.70;;;15.90;;
72924;SDS011;61070;50.794;7.054;2023-05-14T07:40:51;20.23;;;14.80;;
72924;SDS011;61070;50.794;7.054;2023-05-14T07:43:16;26.58;;;15.63;;
72924;SDS011;61070;50.794;7.054;2023-05-14T07:45:41;19.35;;;14.85;;
72924;SDS011;61070;50.794;7.054;2023-05-14T07:48:07;20.60;;;13.73;;
72924;SDS011;61070;50.794;7.054;2023-05-14T07:50:32;13.00;;;10.65;;
72924;SDS011;61070;50.794;7.054;2023-05-14T07:52:57;19.73;;;10.60;;
72924;SDS011;61070;50.794;7.054;2023-05-14T07:55:23;13.65;;;10.13;;
72924;SDS011;61070;50.794;7.054;2023-05-14T07:57:48;15.65;;;11.43;;
72924;SDS011;61070;50.794;7.054;2023-05-14T08:00:13;15.93;;;11.10;;
72924;SDS011;61070;50.794;7.054;2023-05-14T08:02:40;19.65;;;10.38;;
72924;SDS011;61070;50.794;7.054;2023-05-14T08:05:06;15.80;;;10.63;;
72924;SDS011;61070;50.794;7.054;2023-05-14T08:07:33;13.93;;;9.18;;
72924;SDS011;61070;50.794;7.054;2023-05-14T08:09:58;14.75;;;9.98;;
72924;SDS011;61070;50.794;7.054;2023-05-14T08:12:23;16.83;;;9.95;;
72924;SDS011;61070;50.794;7.054;2023-05-14T08:14:49;12.63;;;9.75;;
72924;SDS011;61070;50.794;7.054;2023-05-14T08:17:14;10.50;;;8.45;;
72924;SDS011;61070;50.794;7.054;2023-05-14T08:19:40;12.40;;;8.75;;
72924;SDS011;61070;50.794;7.054;2023-05-14T08:22:05;13.27;;;8.23;;
72924;SDS011;61070;50.794;7.054;2023-05-14T08:24:31;12.40;;;8.30;;
72924;SDS011;61070;50.794;7.054;2023-05-14T08:26:56;10.50;;;7.65;;
72924;SDS011;61070;50.794;7.054;2023-05-14T08:29:21;12.35;;;8.18;;
72924;SDS011;61070;50.794;7.054;2023-05-14T08:31:48;8.70;;;7.00;;
72924;SDS011;61070;50.794;7.054;2023-05-14T08:34:13;10.45;;;6.47;;
72924;SDS011;61070;50.794;7.054;2023-05-14T08:36:39;8.10;;;6.47;;
72924;SDS011;61070;50.794;7.054;2023-05-14T08:39:04;10.38;;;6.65;;
72924;SDS011;61070;50.794;7.054;2023-05-14T08:41:31;11.95;;;6.30;;
72924;SDS011;61070;50.794;7.054;2023-05-14T08:46:35;9.63;;;6.32;;
72924;SDS011;61070;50.794;7.054;2023-05-14T08:49:07;7.05;;;5.88;;
72924;SDS011;61070;50.794;7.054;2023-05-14T08:51:40;7.72;;;5.72;;
72924;SDS011;61070;50.794;7.054;2023-05-14T08:54:06;10.07;;;5.95;;
72924;SDS011;61070;50.794;7.054;2023-05-14T08:56:32;8.57;;;6.07;;
72924;SDS011;61070;50.794;7.054;2023-05-14T08:58:57;10.60;;;6.03;;
72924;SDS011;61070;50.794;7.054;2023-05-14T09:01:23;8.25;;;4.90;;
72924;SDS011;61070;50.794;7.054;2023-05-14T09:03:49;8.20;;;5.15;;
72924;SDS011;61070;50.794;7.054;2023-05-14T09:06:16;6.50;;;5.60;;
72924;SDS011;61070;50.794;7.054;2023-05-14T09:08:43;7.47;;;5.95;;
72924;SDS011;61070;50.794;7.054;2023-05-14T09:11:08;6.93;;;5.50;;
72924;SDS011;61070;50.794;7.054;2023-05-14T09:13:36;8.20;;;5.35;;
72924;SDS011;61070;50.794;7.054;2023-05-14T09:16:02;6.90;;;5.35;;
72924;SDS011;61070;50.794;7.054;2023-05-14T09:18:27;7.47;;;5.82;;
72924;SDS011;61070;50.794;7.054;2023-05-14T09:20:53;7.22;;;5.40;;
72924;SDS011;61070;50.794;7.054;2023-05-14T09:23:18;9.55;;;6.15;;
72924;SDS011;61070;50.794;7.054;2023-05-14T09:25:43;7.55;;;5.20;;
72924;SDS011;61070;50.794;7.054;2023-05-14T09:28:15;7.47;;;5.35;;
72924;SDS011;61070;50.794;7.054;2023-05-14T09:30:41;6.68;;;5.75;;
72924;SDS011;61070;50.794;7.054;2023-05-14T09:33:06;7.55;;;5.25;;
72924;SDS011;61070;50.794;7.054;2023-05-14T09:35:34;6.20;;;5.05;;
72924;SDS011;61070;50.794;7.054;2023-05-14T09:38:04;7.70;;;5.22;;
72924;SDS011;61070;50.794;7.054;2023-05-14T09:40:29;8.00;;;5.95;;
72924;SDS011;61070;50.794;7.054;2023-05-14T09:42:54;7.07;;;4.80;;
72924;SDS011;61070;50.794;7.054;2023-05-14T09:45:20;7.53;;;5.43;;
72924;SDS011;61070;50.794;7.054;2023-05-14T09:47:45;7.25;;;5.40;;
72924;SDS011;61070;50.794;7.054;2023-05-14T09:50:10;10.30;;;5.10;;
72924;SDS011;61070;50.794;7.054;2023-05-14T09:52:36;6.00;;;5.20;;
72924;SDS011;61070;50.794;7.054;2023-05-14T09:55:02;6.75;;;4.55;;
72924;SDS011;61070;50.794;7.054;2023-05-14T09:57:28;5.60;;;4.55;;
72924;SDS011;61070;50.794;7.054;2023-05-14T09:59:53;6.82;;;5.10;;
72924;SDS011;61070;50.794;7.054;2023-05-14T10:04:53;6.63;;;5.50;;
72924;SDS011;61070;50.794;7.054;2023-05-14T10:07:30;8.80;;;5.85;;
72924;SDS011;61070;50.794;7.054;2023-05-14T10:10:01;9.05;;;5.75;;
72924;SDS011;61070;50.794;7.054;2023-05-14T10:12:28;8.10;;;4.60;;
72924;SDS011;61070;50.794;7.054;2023-05-14T10:14:58;6.30;;;4.53;;
72924;SDS011;61070;50.794;7.054;2023-05-14T10:19:55;8.90;;;4.65;;
72924;SDS011;61070;50.794;7.054;2023-05-14T10:22:23;5.15;;;4.40;;
72924;SDS011;61070;50.794;7.054;2023-05-14T10:24:51;7.25;;;4.28;;
72924;SDS011;61070;50.794;7.054;2023-05-14T10:27:19;5.45;;;4.65;;
72924;SDS011;61070;50.794;7.054;2023-05-14T10:29:50;11.27;;;4.30;;
72924;SDS011;61070;50.794;7.054;2023-05-14T10:32:20;7.22;;;4.63;;
72924;SDS011;61070;50.794;7.054;2023-05-14T10:39:57;8.02;;;4.22;;
72924;SDS011;61070;50.794;7.054;2023-05-14T10:42:28;4.00;;;3.60;;
72924;SDS011;61070;50.794;7.054;2023-05-14T10:44:59;6.30;;;3.30;;
72924;SDS011;61070;50.794;7.054;2023-05-14T10:47:45;5.88;;;4.13;;
72924;SDS011;61070;50.794;7.054;2023-05-14T10:50:12;5.75;;;3.80;;
72924;SDS011;61070;50.794;7.054;2023-05-14T10:52:42;8.48;;;3.72;;
72924;SDS011;61070;50.794;7.054;2023-05-14T10:55:11;5.75;;;3.65;;
72924;SDS011;61070;50.794;7.054;2023-05-14T10:57:38;6.55;;;3.50;;
72924;SDS011;61070;50.794;7.054;2023-05-14T11:00:06;3.83;;;3.00;;
72924;SDS011;61070;50.794;7.054;2023-05-14T11:02:42;4.57;;;3.05;;
72924;SDS011;61070;50.794;7.054;2023-05-14T11:05:09;5.57;;;3.10;;
72924;SDS011;61070;50.794;7.054;2023-05-14T11:07:38;3.85;;;3.20;;
72924;SDS011;61070;50.794;7.054;2023-05-14T11:10:09;4.82;;;3.13;;
72924;SDS011;61070;50.794;7.054;2023-05-14T11:12:35;4.63;;;3.42;;
72924;SDS011;61070;50.794;7.054;2023-05-14T11:15:06;6.43;;;3.65;;
72924;SDS011;61070;50.794;7.054;2023-05-14T11:17:33;8.02;;;3.90;;
72924;SDS011;61070;50.794;7.054;2023-05-14T11:20:00;6.45;;;3.50;;
72924;SDS011;61070;50.794;7.054;2023-05-14T11:22:26;6.55;;;3.65;;
72924;SDS011;61070;50.794;7.054;2023-05-14T11:24:51;4.20;;;3.38;;
72924;SDS011;61070;50.794;7.054;2023-05-14T11:27:17;3.60;;;2.70;;
72924;SDS011;61070;50.794;7.054;2023-05-14T11:29:43;6.25;;;3.75;;
72924;SDS011;61070;50.794;7.054;2023-05-14T11:32:10;4.65;;;3.80;;
72924;SDS011;61070;50.794;7.054;2023-05-14T11:34:35;4.68;;;3.28;;
72924;SDS011;61070;50.794;7.054;2023-05-14T11:37:04;4.25;;;3.60;;
72924;SDS011;61070;50.794;7.054;2023-05-14T11:39:33;4.28;;;3.60;;
72924;SDS011;61070;50.794;7.054;2023-05-14T11:42:01;5.05;;;3.55;;
72924;SDS011;61070;50.794;7.054;2023-05-14T11:44:28;5.32;;;3.72;;
72924;SDS011;61070;50.794;7.054;2023-05-14T11:46:54;6.18;;;3.92;;
72924;SDS011;61070;50.794;7.054;2023-05-14T11:49:23;6.00;;;4.40;;
72924;SDS011;61070;50.794;7.054;2023-05-14T11:51:50;7.20;;;3.95;;
72924;SDS011;61070;50.794;7.054;2023-05-14T11:54:21;5.53;;;3.42;;
72924;SDS011;61070;50.794;7.054;2023-05-14T11:56:50;5.57;;;3.63;;
72924;SDS011;61070;50.794;7.054;2023-05-14T11:59:15;5.15;;;3.50;;
72924;SDS011;61070;50.794;7.054;2023-05-14T12:01:42;5.05;;;3.92;;
72924;SDS011;61070;50.794;7.054;2023-05-14T12:04:08;4.45;;;3.10;;
72924;SDS011;61070;50.794;7.054;2023-05-14T12:06:33;4.70;;;3.60;;
72924;SDS011;61070;50.794;7.054;2023-05-14T12:08:59;7.90;;;4.00;;
72924;SDS011;61070;50.794;7.054;2023-05-14T12:11:29;4.95;;;4.03;;
72924;SDS011;61070;50.794;7.054;2023-05-14T12:16:21;9.65;;;3.67;;
72924;SDS011;61070;50.794;7.054;2023-05-14T12:18:46;4.18;;;3.53;;
72924;SDS011;61070;50.794;7.054;2023-05-14T12:21:11;5.53;;;3.25;;
72924;SDS011;61070;50.794;7.054;2023-05-14T12:23:37;6.45;;;3.42;;
72924;SDS011;61070;50.794;7.054;2023-05-14T12:26:03;4.35;;;3.40;;
72924;SDS011;61070;50.794;7.054;2023-05-14T12:28:30;4.90;;;3.38;;
72924;SDS011;61070;50.794;7.054;2023-05-14T12:30:56;8.48;;;4.03;;
72924;SDS011;61070;50.794;7.054;2023-05-14T12:33:22;6.57;;;4.35;;
72924;SDS011;61070;50.794;7.054;2023-05-14T12:35:48;7.55;;;4.35;;
72924;SDS011;61070;50.794;7.054;2023-05-14T12:38:14;6.40;;;3.80;;
72924;SDS011;61070;50.794;7.054;2023-05-14T12:40:39;6.15;;;4.90;;
72924;SDS011;61070;50.794;7.054;2023-05-14T12:43:05;8.55;;;4.22;;
72924;SDS011;61070;50.794;7.054;2023-05-14T12:45:30;6.88;;;4.63;;
72924;SDS011;61070;50.794;7.054;2023-05-14T12:47:55;6.50;;;4.93;;
72924;SDS011;61070;50.794;7.054;2023-05-14T12:50:21;13.55;;;4.57;;
72924;SDS011;61070;50.794;7.054;2023-05-14T12:52:46;10.97;;;4.40;;
72924;SDS011;61070;50.794;7.054;2023-05-14T12:55:11;8.63;;;4.70;;
72924;SDS011;61070;50.794;7.054;2023-05-14T12:57:37;7.33;;;4.23;;
72924;SDS011;61070;50.794;7.054;2023-05-14T13:00:03;8.85;;;3.90;;
72924;SDS011;61070;50.794;7.054;2023-05-14T13:02:30;7.60;;;3.80;;
72924;SDS011;61070;50.794;7.054;2023-05-14T13:04:56;8.23;;;4.55;;
72924;SDS011;61070;50.794;7.054;2023-05-14T13:07:21;7.00;;;4.40;;
72924;SDS011;61070;50.794;7.054;2023-05-14T13:09:46;5.35;;;3.55;;
72924;SDS011;61070;50.794;7.054;2023-05-14T13:12:12;5.77;;;4.10;;
72924;SDS011;61070;50.794;7.054;2023-05-14T13:14:37;8.43;;;3.70;;
72924;SDS011;61070;50.794;7.054;2023-05-14T13:17:03;7.07;;;3.50;;
72924;SDS011;61070;50.794;7.054;2023-05-14T13:19:28;6.05;;;3.78;;
72924;SDS011;61070;50.794;7.054;2023-05-14T13:21:54;8.23;;;4.28;;
72924;SDS011;61070;50.794;7.054;2023-05-14T13:24:19;8.73;;;4.30;;
72924;SDS011;61070;50.794;7.054;2023-05-14T13:26:44;5.10;;;4.00;;
72924;SDS011;61070;50.794;7.054;2023-05-14T13:29:09;7.93;;;4.07;;
72924;SDS011;61070;50.794;7.054;2023-05-14T13:31:35;9.32;;;4.32;;
72924;SDS011;61070;50.794;7.054;2023-05-14T13:34:00;9.95;;;5.10;;
72924;SDS011;61070;50.794;7.054;2023-05-14T13:36:26;6.43;;;4.45;;
72924;SDS011;61070;50.794;7.054;2023-05-14T13:38:52;7.55;;;4.85;;
72924;SDS011;61070;50.794;7.054;2023-05-14T13:41:17;5.88;;;4.50;;
72924;SDS011;61070;50.794;7.054;2023-05-14T13:43:42;8.25;;;4.63;;
72924;SDS011;61070;50.794;7.054;2023-05-14T13:46:07;7.75;;;4.28;;
72924;SDS011;61070;50.794;7.054;2023-05-14T13:48:33;5.22;;;4.15;;
72924;SDS011;61070;50.794;7.054;2023-05-14T13:50:59;4.30;;;3.78;;
72924;SDS011;61070;50.794;7.054;2023-05-14T13:53:25;6.95;;;4.07;;
72924;SDS011;61070;50.794;7.054;2023-05-14T13:55:50;8.98;;;4.57;;
72924;SDS011;61070;50.794;7.054;2023-05-14T13:58:24;6.63;;;3.92;;
72924;SDS011;61070;50.794;7.054;2023-05-14T14:00:50;4.90;;;4.38;;
72924;SDS011;61070;50.794;7.054;2023-05-14T14:03:16;10.68;;;4.82;;
72924;SDS011;61070;50.794;7.054;2023-05-14T14:05:41;9.80;;;3.40;;
72924;SDS011;61070;50.794;7.054;2023-05-14T14:08:06;7.10;;;3.22;;
72924;SDS011;61070;50.794;7.054;2023-05-14T14:10:32;8.25;;;3.70;;
72924;SDS011;61070;50.794;7.054;2023-05-14T14:12:57;5.10;;;3.30;;
72924;SDS011;61070;50.794;7.054;2023-05-14T14:15:22;5.35;;;3.22;;
72924;SDS011;61070;50.794;7.054;2023-05-14T14:17:47;7.38;;;3.17;;
72924;SDS011;61070;50.794;7.054;2023-05-14T14:20:13;6.32;;;3.45;;
72924;SDS011;61070;50.794;7.054;2023-05-14T14:22:39;4.82;;;2.78;;
72924;SDS011;61070;50.794;7.054;2023-05-14T14:25:04;4.55;;;2.78;;
72924;SDS011;61070;50.794;7.054;2023-05-14T14:27:32;7.32;;;3.40;;
72924;SDS011;61070;50.794;7.054;2023-05-14T14:30:00;2.97;;;2.67;;
72924;SDS011;61070;50.794;7.054;2023-05-14T14:32:25;4.68;;;2.70;;
72924;SDS011;61070;50.794;7.054;2023-05-14T14:34:50;4.30;;;2.67;;
72924;SDS011;61070;50.794;7.054;2023-05-14T14:37:15;5.40;;;2.63;;
72924;SDS011;61070;50.794;7.054;2023-05-14T14:39:41;6.43;;;2.22;;
72924;SDS011;61070;50.794;7.054;2023-05-14T14:42:06;4.10;;;2.72;;
72924;SDS011;61070;50.794;7.054;2023-05-14T14:44:31;6.75;;;2.33;;
72924;SDS011;61070;50.794;7.054;2023-05-14T14:46:57;22.20;;;3.03;;
72924;SDS011;61070;50.794;7.054;2023-05-14T14:49:22;4.77;;;2.60;;
72924;SDS011;61070;50.794;7.054;2023-05-14T14:51:47;5.78;;;2.08;;
72924;SDS011;61070;50.794;7.054;2023-05-14T14:54:12;4.65;;;2.88;;